createdAt,value
2023-02-19T00:03:08.299Z,101839.41
2023-02-19T00:08:12.759Z,101840.94
2023-02-19T00:13:16.312Z,101846.94
2023-02-19T00:18:19.301Z,101841.34
2023-02-19T00:23:23.763Z,101851.00
2023-02-19T00:28:26.820Z,101862.34
2023-02-19T00:33:30.130Z,101855.16
2023-02-19T00:38:37.999Z,101857.44
2023-02-19T00:43:41.089Z,101850.03
2023-02-19T00:48:46.638Z,101842.34
2023-02-19T00:53:51.222Z,101858.50
2023-02-19T00:58:54.505Z,101852.66
2023-02-19T01:03:57.565Z,101866.00
2023-02-19T01:09:01.792Z,101874.34
2023-02-19T01:14:05.210Z,101861.38
2023-02-19T01:19:08.816Z,101882.34
2023-02-19T01:24:13.425Z,101874.41
2023-02-19T01:29:16.433Z,101883.38
2023-02-19T01:34:19.479Z,101879.91
2023-02-19T01:39:23.886Z,101882.34
2023-02-19T01:45:04.348Z,101892.31
2023-02-19T01:50:08.071Z,101882.72
2023-02-19T01:55:14.044Z,101891.25
2023-02-19T02:00:17.946Z,101876.31
2023-02-19T02:05:31.131Z,101880.47
2023-02-19T02:10:35.706Z,101882.03
2023-02-19T02:15:49.906Z,101882.22
2023-02-19T02:21:26.324Z,101880.47
2023-02-19T02:26:45.951Z,101890.41
2023-02-19T02:31:55.101Z,101895.03
2023-02-19T02:36:59.343Z,101885.75
2023-02-19T02:42:20.951Z,101882.84
2023-02-19T02:47:43.172Z,101893.06
2023-02-19T02:53:07.204Z,101900.47
2023-02-19T02:58:11.822Z,101906.06
2023-02-19T03:03:22.273Z,101893.16
2023-02-19T03:08:30.263Z,101921.00
2023-02-19T03:13:56.485Z,101924.69
2023-02-19T03:19:19.268Z,101923.16
2023-02-19T03:24:45.687Z,101926.03
2023-02-19T03:29:51.481Z,101924.59
2023-02-19T03:35:01.118Z,101929.03
2023-02-19T03:40:04.952Z,101936.72
2023-02-19T03:45:26.036Z,101937.25
2023-02-19T03:50:41.816Z,101949.56
2023-02-19T03:55:48.929Z,101952.34
2023-02-19T04:00:59.301Z,101966.00
2023-02-19T04:06:06.976Z,101958.88
2023-02-19T04:11:11.459Z,101961.41
2023-02-19T04:16:21.509Z,101964.81
2023-02-19T04:21:26.928Z,101984.00
2023-02-19T04:26:30.760Z,101984.00
2023-02-19T04:31:36.489Z,101989.06
2023-02-19T04:36:40.896Z,102006.59
2023-02-19T04:41:44.143Z,102023.16
2023-02-19T04:46:47.150Z,102016.69
2023-02-19T04:51:51.581Z,102037.66
2023-02-19T04:56:54.601Z,102051.59
2023-02-19T05:01:58.050Z,102060.25
2023-02-19T05:07:02.403Z,102066.41
2023-02-19T05:12:05.674Z,102064.59
2023-02-19T05:17:08.687Z,102067.84
2023-02-19T05:22:13.128Z,102066.53
2023-02-19T05:27:16.210Z,102083.19
2023-02-19T05:32:19.236Z,102088.41
2023-02-19T05:37:23.679Z,102088.22
2023-02-19T05:42:26.694Z,102085.72
2023-02-19T05:47:29.654Z,102085.72
2023-02-19T05:52:34.246Z,102082.25
2023-02-19T05:57:43.509Z,102098.81
2023-02-19T06:02:47.204Z,102089.22
2023-02-19T06:07:51.724Z,102095.28
2023-02-19T06:12:54.780Z,102098.50
2023-02-19T06:17:57.726Z,102115.06
2023-02-19T06:23:02.434Z,102113.75
2023-02-19T06:28:05.997Z,102125.22
2023-02-19T06:33:08.923Z,102137.41
2023-02-19T06:38:13.312Z,102144.56
2023-02-19T06:43:16.329Z,102147.28
2023-02-19T06:48:19.336Z,102146.06
2023-02-19T06:53:24.630Z,102153.06
2023-02-19T06:58:28.421Z,102158.47
2023-02-19T07:03:31.372Z,102154.03
2023-02-19T07:08:35.800Z,102168.97
2023-02-19T07:13:38.795Z,102171.38
2023-02-19T07:18:42.312Z,102194.69
2023-02-19T07:23:47.212Z,102208.66
2023-02-19T07:28:52.030Z,102212.31
2023-02-19T07:33:55.723Z,102220.78
2023-02-19T07:39:00.939Z,102234.56
2023-02-19T07:44:03.885Z,102246.59
2023-02-19T07:49:07.763Z,102254.13
2023-02-19T07:54:12.614Z,102267.56
2023-02-19T07:59:15.924Z,102264.72
2023-02-19T08:04:18.992Z,102282.25
2023-02-19T08:09:23.437Z,102280.53
2023-02-19T08:14:27.111Z,102291.72
2023-02-19T08:19:30.153Z,102305.41
2023-02-19T08:24:34.620Z,102310.31
2023-02-19T08:29:37.834Z,102307.00
2023-02-19T08:34:40.965Z,102300.09
2023-02-19T08:39:45.491Z,102316.25
2023-02-19T08:44:48.510Z,102316.56
2023-02-19T08:49:51.622Z,102323.94
2023-02-19T08:54:56.502Z,102332.94
2023-02-19T08:59:59.977Z,102335.28
2023-02-19T09:05:03.310Z,102329.88
2023-02-19T09:10:08.959Z,102334.69
2023-02-19T09:15:11.954Z,102338.31
2023-02-19T09:20:15.034Z,102348.00
2023-02-19T09:25:22.284Z,102358.63
2023-02-19T09:30:25.523Z,102356.38
2023-02-19T09:35:28.527Z,102344.97
2023-02-19T09:40:32.966Z,102378.88
2023-02-19T09:45:39.189Z,102384.81
2023-02-19T09:50:47.748Z,102394.09
2023-02-19T09:55:53.927Z,102399.22
2023-02-19T10:01:00.704Z,102404.53
2023-02-19T10:06:11.266Z,102418.34
2023-02-19T10:11:17.152Z,102427.38
2023-02-19T10:16:24.964Z,102432.25
2023-02-19T10:21:29.152Z,102438.50
2023-02-19T10:26:36.717Z,102439.97
2023-02-19T10:31:40.403Z,102468.03
2023-02-19T10:36:45.344Z,102475.53
2023-02-19T10:41:50.632Z,102473.69
2023-02-19T10:46:55.602Z,102477.22
2023-02-19T10:52:05.611Z,102471.91
2023-02-19T10:57:30.176Z,102485.94
2023-02-19T11:02:33.898Z,102493.19
2023-02-19T11:07:38.477Z,102484.78
2023-02-19T11:12:43.056Z,102490.66
2023-02-19T11:17:46.475Z,102487.47
2023-02-19T11:22:50.137Z,102485.34
2023-02-19T11:28:00.428Z,102480.78
2023-02-19T11:33:31.059Z,102461.91
2023-02-19T11:38:33.986Z,102471.94
2023-02-19T11:44:05.110Z,102475.75
2023-02-19T11:49:25.260Z,102486.03
2023-02-19T11:54:48.793Z,102490.28
2023-02-19T12:00:01.447Z,102491.28
2023-02-19T12:05:27.330Z,102471.31
2023-02-19T12:10:39.941Z,102474.16
2023-02-19T12:16:00.787Z,102483.03
2023-02-19T12:21:17.679Z,102483.56
2023-02-19T12:26:26.019Z,102487.22
2023-02-19T12:32:00.168Z,102490.28
2023-02-19T12:37:18.245Z,102491.91
2023-02-19T12:42:36.839Z,102481.28
2023-02-19T12:47:43.601Z,102477.72
2023-02-19T12:52:51.703Z,102493.16
2023-02-19T12:57:58.764Z,102496.84
2023-02-19T13:03:10.718Z,102519.16
2023-02-19T13:08:21.671Z,102530.69
2023-02-19T13:13:30.277Z,102533.06
2023-02-19T13:18:41.325Z,102533.94
2023-02-19T13:24:00.160Z,102539.06
2023-02-19T13:29:17.665Z,102550.47
2023-02-19T13:34:35.170Z,102556.97
2023-02-19T13:39:38.863Z,102550.91
2023-02-19T13:44:42.457Z,102561.16
2023-02-19T13:49:50.188Z,102568.84
2023-02-19T13:54:53.131Z,102562.41
2023-02-19T13:59:58.019Z,102580.84
2023-02-19T14:05:05.190Z,102592.09
2023-02-19T14:10:14.015Z,102603.66
2023-02-19T14:15:45.252Z,102600.50
2023-02-19T14:20:49.686Z,102617.81
2023-02-19T14:26:03.688Z,102612.44
2023-02-19T14:31:18.017Z,102602.94
2023-02-19T14:36:48.658Z,102596.94
2023-02-19T14:41:54.194Z,102585.38
2023-02-19T14:47:00.902Z,102591.72
2023-02-19T14:52:13.100Z,102576.72
2023-02-19T14:57:20.851Z,102585.34
2023-02-19T15:02:25.978Z,102593.72
2023-02-19T15:07:32.795Z,102587.59
2023-02-19T15:12:42.857Z,102584.63
2023-02-19T15:17:46.436Z,102580.03
2023-02-19T15:22:51.276Z,102569.75
2023-02-19T15:27:54.234Z,102598.03
2023-02-19T15:32:58.937Z,102609.22
2023-02-19T15:38:03.377Z,102617.75
2023-02-19T15:43:06.486Z,102629.94
2023-02-19T15:48:13.300Z,102622.78
2023-02-19T15:53:21.087Z,102625.19
2023-02-19T15:58:28.755Z,102626.94
2023-02-19T16:03:32.712Z,102630.88
2023-02-19T16:08:38.651Z,102646.69
2023-02-19T16:13:41.725Z,102658.66
2023-02-19T16:18:47.573Z,102670.84
2023-02-19T16:23:55.126Z,102678.72
2023-02-19T16:28:58.162Z,102688.25
2023-02-19T16:34:18.386Z,102682.59
2023-02-19T16:39:26.383Z,102664.78
2023-02-19T16:44:37.541Z,102665.94
2023-02-19T16:49:42.558Z,102675.16
2023-02-19T16:54:48.930Z,102688.34
2023-02-19T16:59:52.008Z,102678.31
2023-02-19T17:04:55.870Z,102671.81
2023-02-19T17:10:00.379Z,102676.81
2023-02-19T17:15:03.488Z,102685.56
2023-02-19T17:20:20.568Z,102688.31
2023-02-19T17:25:25.088Z,102700.72
2023-02-19T17:30:30.490Z,102698.31
2023-02-19T17:35:33.704Z,102705.31
2023-02-19T17:40:38.810Z,102700.66
2023-02-19T17:45:41.874Z,102702.97
2023-02-19T17:50:44.967Z,102738.81
2023-02-19T17:55:49.385Z,102743.69
2023-02-19T18:00:52.469Z,102738.59
2023-02-19T18:05:55.575Z,102735.06
2023-02-19T18:11:00.404Z,102730.91
2023-02-19T18:16:03.470Z,102743.06
2023-02-19T18:21:10.140Z,102723.63
2023-02-19T18:26:20.154Z,102716.31
2023-02-19T18:31:23.305Z,102705.09
2023-02-19T18:36:26.479Z,102713.97
2023-02-19T18:41:31.020Z,102704.84
2023-02-19T18:46:34.165Z,102714.75
2023-02-19T18:51:37.118Z,102717.13
2023-02-19T18:56:45.454Z,102720.91
2023-02-19T19:01:48.491Z,102719.34
2023-02-19T19:06:51.690Z,102717.75
2023-02-19T19:11:59.018Z,102727.25
2023-02-19T19:17:02.143Z,102731.44
2023-02-19T19:22:05.120Z,102723.09
2023-02-19T19:27:09.703Z,102727.28
2023-02-19T19:32:12.852Z,102729.88
2023-02-19T19:37:17.535Z,102726.75
2023-02-19T19:42:22.129Z,102732.22
2023-02-19T19:47:25.541Z,102730.53
2023-02-19T19:52:30.368Z,102731.72
2023-02-19T19:57:34.845Z,102712.53
2023-02-19T20:02:37.856Z,102714.50
2023-02-19T20:07:41.300Z,102708.47
2023-02-19T20:12:45.898Z,102708.75
2023-02-19T20:17:49.113Z,102733.28
2023-02-19T20:22:52.920Z,102721.75
2023-02-19T20:27:57.416Z,102725.66
2023-02-19T20:33:00.521Z,102699.22
2023-02-19T20:38:03.548Z,102704.91
2023-02-19T20:43:08.023Z,102700.09
2023-02-19T20:48:11.253Z,102707.38
2023-02-19T20:53:14.202Z,102711.25
2023-02-19T20:58:19.845Z,102701.06
2023-02-19T21:03:23.977Z,102709.53
2023-02-19T21:08:27.248Z,102703.25
2023-02-19T21:13:32.059Z,102705.97
2023-02-19T21:18:35.287Z,102693.75
2023-02-19T21:23:38.301Z,102682.13
2023-02-19T21:28:42.598Z,102669.09
2023-02-19T21:33:45.728Z,102668.81
2023-02-19T21:38:48.734Z,102667.63
2023-02-19T21:43:54.892Z,102684.06
2023-02-19T21:48:58.280Z,102681.81
2023-02-19T21:54:01.522Z,102696.66
2023-02-19T21:59:05.888Z,102681.41
2023-02-19T22:04:10.242Z,102673.47
2023-02-19T22:09:14.917Z,102663.03
2023-02-19T22:14:19.524Z,102667.44
2023-02-19T22:19:22.595Z,102680.19
2023-02-19T22:24:25.571Z,102661.97
2023-02-19T22:29:29.995Z,102655.59
2023-02-19T22:34:33.102Z,102656.88
2023-02-19T22:39:36.447Z,102653.72
2023-02-19T22:44:43.723Z,102649.56
2023-02-19T22:49:47.027Z,102651.41
2023-02-19T22:54:50.085Z,102648.78
2023-02-19T22:59:54.541Z,102656.25
2023-02-19T23:04:57.468Z,102642.38
2023-02-19T23:10:00.536Z,102630.69
2023-02-19T23:15:05.991Z,102625.25
2023-02-19T23:20:10.156Z,102604.66
2023-02-19T23:25:13.257Z,102601.03
2023-02-19T23:30:18.266Z,102608.19
2023-02-19T23:35:21.303Z,102605.56
2023-02-19T23:40:24.781Z,102601.53
2023-02-19T23:45:29.762Z,102592.94
2023-02-19T23:50:32.768Z,102608.06
2023-02-19T23:55:35.880Z,102616.41
